Time;durP1;ratioP1;P1;durP2;ratioP2;P2;SDS_P1;SDS_P2;PMS_P1;PMS_P2;Temp;Humidity;BMP_temperature;BMP_pressure;BME280_temperature;BME280_humidity;BME280_pressure;Samples;Min_cycle;Max_cycle;Signal;HPM_P1;HPM_P2
2021/04/10 00:00:08;;;;;;;;;;;;;;;14.44;34.39;100861.44;5009116;28;96898;-80
2021/04/10 00:02:34;;;;;;;;;;;;;;;14.56;34.25;100865.31;5006641;28;99638;-81
2021/04/10 00:05:00;;;;;;;;;;;;;;;14.09;34.86;100865.81;5004605;28;97722;-80
2021/04/10 00:07:26;;;;;;;;;;;;;;;14.36;34.77;100863.59;5002706;28;96826;-80
2021/04/10 00:09:52;;;;;;;;;;;;;;;14.67;34.15;100861.16;4999039;28;97130;-79
2021/04/10 00:12:18;;;;;;;;;;;;;;;14.72;34.27;100861.78;4994865;28;102710;-80
2021/04/10 00:14:46;;;;;;;;;;;;;;;14.49;34.62;100864.75;4998633;28;98684;-80
2021/04/10 00:17:13;;;;;;;;;;;;;;;14.55;34.43;100867.09;4996865;28;96765;-80
2021/04/10 00:19:39;;;;;;;;;;;;;;;14.37;34.81;100873.31;4988731;28;97043;-80
2021/04/10 00:22:05;;;;;;;;;;;;;;;14.31;35.14;100878.88;4997703;28;97921;-79
2021/04/10 00:24:31;;;;;;;;;;;;;;;14.24;35.39;100890.78;4997458;28;99083;-80
2021/04/10 00:26:56;;;;;;;;;;;;;;;14.27;35.20;100891.47;4992874;28;97399;-81
2021/04/10 00:29:22;;;;;;;;;;;;;;;14.51;34.98;100886.78;4997415;28;98451;-80
2021/04/10 00:31:48;;;;;;;;;;;;;;;14.33;35.43;100885.00;4992285;28;101083;-81
2021/04/10 00:34:15;;;;;;;;;;;;;;;14.31;35.39;100873.56;4997842;28;97972;-81
2021/04/10 00:36:41;;;;;;;;;;;;;;;14.41;35.13;100888.19;4998135;28;96958;-81
2021/04/10 00:39:07;;;;;;;;;;;;;;;14.50;35.13;100877.13;4998583;28;96729;-82
2021/04/10 00:41:32;;;;;;;;;;;;;;;14.61;34.96;100880.09;4993328;28;99007;-80
2021/04/10 00:43:58;;;;;;;;;;;;;;;14.42;35.49;100884.59;4997513;28;98472;-80
2021/04/10 00:46:24;;;;;;;;;;;;;;;14.50;35.39;100881.56;4990122;28;97317;-81
2021/04/10 00:48:50;;;;;;;;;;;;;;;14.53;35.37;100879.59;4995987;28;97229;-81
2021/04/10 00:51:17;;;;;;;;;;;;;;;14.29;36.22;100880.78;4996498;28;99213;-80
2021/04/10 00:53:43;;;;;;;;;;;;;;;13.96;36.67;100875.28;4994731;28;98797;-81
2021/04/10 00:56:09;;;;;;;;;;;;;;;13.24;38.04;100880.38;4990060;28;96884;-81
2021/04/10 00:58:35;;;;;;;;;;;;;;;12.87;39.03;100874.91;4990333;28;96761;-82
2021/04/10 01:01:02;;;;;;;;;;;;;;;12.19;40.56;100868.03;4997943;28;98887;-82
2021/04/10 01:03:30;;;;;;;;;;;;;;;11.55;41.77;100852.81;4999893;28;98142;-80
2021/04/10 01:05:56;;;;;;;;;;;;;;;12.22;41.26;100847.56;4998029;28;97258;-79
2021/04/10 01:08:23;;;;;;;;;;;;;;;12.01;41.20;100859.06;5000608;28;96977;-80
2021/04/10 01:10:49;;;;;;;;;;;;;;;12.11;41.31;100847.16;4997261;28;99423;-81
2021/04/10 01:13:33;;;;;;;;;;;;;;;12.14;41.58;100857.59;4999453;28;98664;-81
2021/04/10 01:16:01;;;;;;;;;;;;;;;12.41;41.00;100860.06;4995328;28;97106;-81
2021/04/10 01:18:30;;;;;;;;;;;;;;;12.42;41.25;100859.16;4996891;28;96846;-80
2021/04/10 01:21:05;;;;;;;;;;;;;;;12.55;40.80;100855.06;4996954;28;99357;-81
2021/04/10 01:23:53;;;;;;;;;;;;;;;12.47;41.61;100857.19;4996965;28;97129;-81
2021/04/10 01:26:32;;;;;;;;;;;;;;;12.50;42.25;100859.69;4977761;28;96848;-80
2021/04/10 01:29:01;;;;;;;;;;;;;;;11.57;45.43;100861.56;4996678;28;96918;-80
2021/04/10 01:31:29;;;;;;;;;;;;;;;11.59;45.63;100857.09;4997344;28;99124;-80
2021/04/10 01:33:59;;;;;;;;;;;;;;;12.27;44.17;100863.31;4999436;28;100881;-81
2021/04/10 01:36:27;;;;;;;;;;;;;;;12.33;43.87;100858.63;4998968;28;96924;-81
2021/04/10 01:38:53;;;;;;;;;;;;;;;12.60;43.43;100855.75;5002512;28;96774;-80
2021/04/10 01:41:20;;;;;;;;;;;;;;;12.90;42.80;100859.75;4999804;28;99243;-79
2021/04/10 01:43:47;;;;;;;;;;;;;;;12.68;43.15;100858.91;5003341;28;99065;-79
2021/04/10 01:46:15;;;;;;;;;;;;;;;12.64;43.01;100858.19;5001233;28;96861;-80
2021/04/10 01:48:45;;;;;;;;;;;;;;;12.48;43.35;100872.13;5001683;28;97145;-80
2021/04/10 01:51:11;;;;;;;;;;;;;;;12.94;42.36;100865.75;5000352;28;99199;-81
2021/04/10 01:53:37;;;;;;;;;;;;;;;13.20;41.88;100876.13;5000161;28;99292;-81
2021/04/10 01:56:04;;;;;;;;;;;;;;;13.11;41.94;100872.06;5002774;28;96815;-81
2021/04/10 01:58:31;;;;;;;;;;;;;;;13.29;41.55;100866.91;5002216;28;96724;-81
2021/04/10 02:00:58;;;;;;;;;;;;;;;13.12;41.91;100859.66;5002633;28;98946;-81
2021/04/10 02:03:25;;;;;;;;;;;;;;;13.19;41.82;100869.13;5001557;28;98811;-81
2021/04/10 02:05:51;;;;;;;;;;;;;;;13.32;41.60;100866.78;5004022;28;96695;-80
2021/04/10 02:08:19;;;;;;;;;;;;;;;13.34;41.44;100878.16;5005930;28;96845;-80
2021/04/10 02:10:45;;;;;;;;;;;;;;;13.22;41.72;100876.06;5005116;28;99239;-80
2021/04/10 02:13:12;;;;;;;;;;;;;;;13.14;42.05;100885.22;5002172;28;100989;-81
2021/04/10 02:15:38;;;;;;;;;;;;;;;13.02;42.17;100887.50;5001583;28;96994;-81
2021/04/10 02:18:04;;;;;;;;;;;;;;;13.05;42.43;100888.25;4999742;28;96836;-80
2021/04/10 02:20:31;;;;;;;;;;;;;;;13.20;42.03;100888.53;4999343;28;98773;-79
2021/04/10 02:22:57;;;;;;;;;;;;;;;13.27;42.04;100887.31;5000073;28;97949;-80
2021/04/10 02:25:25;;;;;;;;;;;;;;;13.06;42.37;100889.13;4998004;28;96891;-80
2021/04/10 02:27:52;;;;;;;;;;;;;;;12.83;43.17;100884.78;4991477;28;97179;-82
2021/04/10 02:30:18;;;;;;;;;;;;;;;13.13;42.31;100894.09;4998272;28;99358;-80
2021/04/10 02:32:48;;;;;;;;;;;;;;;12.95;42.54;100894.88;4999771;28;100509;-80
2021/04/10 02:35:16;;;;;;;;;;;;;;;12.30;44.00;100893.19;5000889;28;96787;-81
2021/04/10 02:37:43;;;;;;;;;;;;;;;12.48;44.24;100896.00;4998967;28;98474;-80
2021/04/10 02:40:11;;;;;;;;;;;;;;;12.28;44.55;100896.81;4998772;28;99115;-80
2021/04/10 02:42:40;;;;;;;;;;;;;;;12.55;44.10;100894.81;4999621;28;98907;-81
2021/04/10 02:45:07;;;;;;;;;;;;;;;12.31;44.38;100894.91;4998929;28;97357;-80
2021/04/10 02:47:34;;;;;;;;;;;;;;;12.65;43.86;100890.88;4993863;28;97039;-80
2021/04/10 02:50:03;;;;;;;;;;;;;;;12.42;44.34;100898.91;4998360;28;99170;-81
2021/04/10 02:52:31;;;;;;;;;;;;;;;12.48;44.07;100894.22;4999289;28;98798;-81
2021/04/10 02:55:00;;;;;;;;;;;;;;;12.48;44.13;100898.63;5001389;28;96672;-81
2021/04/10 02:57:27;;;;;;;;;;;;;;;12.73;43.66;100891.44;4998891;28;96911;-81
2021/04/10 02:59:57;;;;;;;;;;;;;;;12.73;43.73;100886.13;4999134;28;99309;-81
2021/04/10 03:02:23;;;;;;;;;;;;;;;12.80;43.63;100887.56;4998521;28;99418;-81
2021/04/10 03:04:49;;;;;;;;;;;;;;;13.22;42.75;100891.97;5000874;28;96738;-80
2021/04/10 03:07:15;;;;;;;;;;;;;;;13.22;42.58;100884.03;5001167;28;96827;-80
2021/04/10 03:09:42;;;;;;;;;;;;;;;13.20;42.41;100885.88;5004507;28;99021;-80
2021/04/10 03:12:10;;;;;;;;;;;;;;;13.04;42.77;100877.72;5017147;27;98928;-79
2021/04/10 03:14:36;;;;;;;;;;;;;;;13.26;42.46;100891.78;5019550;28;96658;-80
2021/04/10 03:17:03;;;;;;;;;;;;;;;12.93;43.20;100903.84;4992066;28;96847;-81
2021/04/10 03:19:29;;;;;;;;;;;;;;;13.40;41.91;100907.94;4989323;28;98947;-82
2021/04/10 03:21:55;;;;;;;;;;;;;;;12.70;43.17;100899.50;5000693;28;98064;-80
2021/04/10 03:24:21;;;;;;;;;;;;;;;12.63;43.76;100908.63;5000117;28;97040;-80
2021/04/10 03:26:47;;;;;;;;;;;;;;;12.74;43.55;100904.59;4999449;28;98634;-81
2021/04/10 03:29:15;;;;;;;;;;;;;;;13.24;42.66;100900.75;4997354;28;98687;-80
2021/04/10 03:31:41;;;;;;;;;;;;;;;13.43;42.25;100907.84;4999364;28;97589;-80
2021/04/10 03:34:07;;;;;;;;;;;;;;;12.92;43.16;100907.41;5001033;28;96777;-80
2021/04/10 03:36:33;;;;;;;;;;;;;;;13.32;42.68;100909.25;5003214;28;97151;-81
2021/04/10 03:39:00;;;;;;;;;;;;;;;13.26;42.99;100909.53;5004007;28;97617;-81
2021/04/10 03:41:26;;;;;;;;;;;;;;;13.08;43.49;100913.78;5004636;28;98872;-81
2021/04/10 03:43:51;;;;;;;;;;;;;;;13.03;43.89;100921.94;5001433;28;96778;-80
2021/04/10 03:46:18;;;;;;;;;;;;;;;13.30;43.64;100921.72;4998958;28;96880;-81
2021/04/10 03:48:44;;;;;;;;;;;;;;;12.91;44.27;100925.13;4984314;28;98857;-80
2021/04/10 03:51:10;;;;;;;;;;;;;;;12.84;45.04;100926.31;4997586;28;98826;-80
2021/04/10 03:53:35;;;;;;;;;;;;;;;12.81;45.64;100937.03;4996985;28;97144;-81
2021/04/10 03:56:02;;;;;;;;;;;;;;;13.21;45.02;100933.56;4999184;28;96904;-81
2021/04/10 03:58:27;;;;;;;;;;;;;;;13.01;44.65;100934.41;4998469;28;101969;-80
2021/04/10 04:00:53;;;;;;;;;;;;;;;13.06;44.50;100937.72;4996862;28;101459;-80
2021/04/10 04:03:20;;;;;;;;;;;;;;;13.31;43.52;100942.00;4994427;28;96846;-81
2021/04/10 04:05:46;;;;;;;;;;;;;;;13.55;43.26;100948.88;4998756;28;96960;-80
2021/04/10 04:08:13;;;;;;;;;;;;;;;13.40;44.55;100949.56;5001978;28;99316;-81
2021/04/10 04:10:38;;;;;;;;;;;;;;;12.83;46.55;100944.91;5015300;28;97884;-80
2021/04/10 04:13:04;;;;;;;;;;;;;;;12.86;47.76;100947.47;5017090;28;96012;-81
2021/04/10 04:15:30;;;;;;;;;;;;;;;12.83;47.41;100945.78;5014576;28;96157;-80
2021/04/10 04:17:56;;;;;;;;;;;;;;;12.84;47.83;100954.59;5008133;28;97796;-80
2021/04/10 04:20:23;;;;;;;;;;;;;;;12.25;50.16;100953.44;4989381;28;100634;-80
2021/04/10 04:22:49;;;;;;;;;;;;;;;12.64;49.45;100958.06;4999608;28;96883;-81
2021/04/10 04:25:14;;;;;;;;;;;;;;;12.31;51.02;100966.44;4999493;28;96829;-80
2021/04/10 04:27:40;;;;;;;;;;;;;;;12.25;51.25;100965.81;4997862;28;97693;-80
2021/04/10 04:30:09;;;;;;;;;;;;;;;12.79;49.83;100960.09;4998583;28;98930;-81
2021/04/10 04:32:35;;;;;;;;;;;;;;;12.93;48.55;100960.38;4998651;28;97012;-81
2021/04/10 04:35:01;;;;;;;;;;;;;;;12.96;49.26;100965.56;4998276;28;97177;-81
2021/04/10 04:37:27;;;;;;;;;;;;;;;12.73;50.32;100973.63;4998331;28;98783;-80
2021/04/10 04:39:53;;;;;;;;;;;;;;;12.49;51.27;100964.84;4998103;28;98939;-79
2021/04/10 04:42:19;;;;;;;;;;;;;;;13.06;49.43;100980.16;4990216;28;97035;-81
2021/04/10 04:44:50;;;;;;;;;;;;;;;12.99;50.29;100986.69;5001798;28;96856;-81
2021/04/10 04:47:21;;;;;;;;;;;;;;;13.12;47.60;100993.22;5000724;28;100585;-82
2021/04/10 04:49:47;;;;;;;;;;;;;;;13.02;48.43;100989.19;4999544;28;99322;-84
2021/04/10 04:52:22;;;;;;;;;;;;;;;12.93;48.22;100994.84;4999749;28;96871;-80
2021/04/10 04:54:52;;;;;;;;;;;;;;;12.40;49.14;100988.22;5001013;28;97182;-82
2021/04/10 04:57:20;;;;;;;;;;;;;;;12.16;51.05;100998.81;4993403;28;97755;-82
2021/04/10 04:59:46;;;;;;;;;;;;;;;12.31;50.31;100997.38;5001634;28;98491;-82
2021/04/10 05:02:12;;;;;;;;;;;;;;;12.58;49.48;100995.44;5004127;28;96908;-82
2021/04/10 05:04:38;;;;;;;;;;;;;;;12.62;48.48;101003.19;5003483;28;96745;-80
2021/04/10 05:07:04;;;;;;;;;;;;;;;12.90;49.43;101008.25;5003327;28;97714;-81
2021/04/10 05:09:30;;;;;;;;;;;;;;;12.85;50.56;101015.53;5001530;28;97780;-82
2021/04/10 05:11:58;;;;;;;;;;;;;;;12.51;50.04;101013.38;5002250;28;96990;-81
2021/04/10 05:14:26;;;;;;;;;;;;;;;12.31;49.47;101015.94;5004139;28;97593;-83
2021/04/10 05:16:53;;;;;;;;;;;;;;;12.07;52.01;101024.81;5003675;28;101519;-82
2021/04/10 05:19:19;;;;;;;;;;;;;;;12.02;52.44;101021.44;5006129;28;100920;-83
2021/04/10 05:21:44;;;;;;;;;;;;;;;12.32;51.45;101029.13;5004593;28;96850;-81
2021/04/10 05:24:10;;;;;;;;;;;;;;;12.30;51.11;101028.31;5003442;28;97119;-80
2021/04/10 05:26:36;;;;;;;;;;;;;;;12.18;52.05;101033.22;5001139;28;98867;-80
2021/04/10 05:29:03;;;;;;;;;;;;;;;12.33;51.50;101033.50;5005668;28;101275;-79
2021/04/10 05:31:29;;;;;;;;;;;;;;;12.54;51.04;101042.38;5004250;28;96770;-80
2021/04/10 05:33:55;;;;;;;;;;;;;;;12.34;51.71;101051.09;5003811;28;96762;-81
2021/04/10 05:36:21;;;;;;;;;;;;;;;12.43;51.42;101047.25;5004910;28;97857;-80
2021/04/10 05:38:47;;;;;;;;;;;;;;;11.87;52.21;101044.06;5005548;28;98421;-80
2021/04/10 05:41:13;;;;;;;;;;;;;;;11.77;53.68;101037.38;5003723;28;96696;-80
2021/04/10 05:43:39;;;;;;;;;;;;;;;12.14;53.68;101050.16;5004515;28;96822;-81
2021/04/10 05:46:06;;;;;;;;;;;;;;;11.85;53.10;101054.72;5001612;28;99194;-80
2021/04/10 05:48:32;;;;;;;;;;;;;;;12.10;53.88;101051.16;4998370;28;99187;-80
2021/04/10 05:50:58;;;;;;;;;;;;;;;11.89;54.56;101058.09;5001728;28;96934;-81
2021/04/10 05:53:26;;;;;;;;;;;;;;;12.07;53.91;101062.75;5001893;28;97164;-80
2021/04/10 05:55:52;;;;;;;;;;;;;;;11.73;54.92;101067.50;5003258;28;97873;-80
2021/04/10 05:58:18;;;;;;;;;;;;;;;12.05;53.45;101067.22;5002251;28;98713;-80
2021/04/10 06:00:44;;;;;;;;;;;;;;;11.87;53.27;101070.56;5003473;28;96777;-81
2021/04/10 06:03:10;;;;;;;;;;;;;;;12.20;53.19;101066.69;4998544;28;97091;-81
2021/04/10 06:05:36;;;;;;;;;;;;;;;11.45;54.59;101076.38;5003423;28;99464;-81
2021/04/10 06:08:02;;;;;;;;;;;;;;;11.30;55.26;101066.28;5004193;28;98690;-81
2021/04/10 06:10:28;;;;;;;;;;;;;;;11.66;54.82;101069.50;5002406;28;96709;-82
2021/04/10 06:12:54;;;;;;;;;;;;;;;11.98;53.94;101073.69;5002408;28;96949;-81
2021/04/10 06:15:20;;;;;;;;;;;;;;;12.08;53.42;101076.88;5001206;28;96936;-82
2021/04/10 06:17:46;;;;;;;;;;;;;;;12.45;52.27;101071.06;5000630;28;98703;-81
2021/04/10 06:20:14;;;;;;;;;;;;;;;12.51;51.19;101068.16;5003721;28;96729;-82
2021/04/10 06:22:40;;;;;;;;;;;;;;;12.54;51.34;101068.03;5003388;28;97075;-80
2021/04/10 06:25:06;;;;;;;;;;;;;;;12.60;51.07;101079.25;5002740;28;99197;-81
2021/04/10 06:27:33;;;;;;;;;;;;;;;12.45;51.42;101079.00;4999077;28;98354;-81
2021/04/10 06:29:59;;;;;;;;;;;;;;;12.58;51.05;101088.22;5001522;28;96692;-82
2021/04/10 06:32:28;;;;;;;;;;;;;;;12.55;50.93;101085.66;5000100;28;96884;-81
2021/04/10 06:34:54;;;;;;;;;;;;;;;12.29;51.29;101090.16;4999666;28;96696;-82
2021/04/10 06:37:21;;;;;;;;;;;;;;;11.83;52.74;101093.59;4998649;28;99091;-81
2021/04/10 06:39:47;;;;;;;;;;;;;;;11.96;52.65;101099.34;4999212;28;97061;-81
2021/04/10 06:42:13;;;;;;;;;;;;;;;12.08;52.82;101090.13;4992112;28;98882;-82
2021/04/10 06:44:39;;;;;;;;;;;;;;;11.78;53.78;101094.69;5007768;28;99385;-81
2021/04/10 06:47:05;;;;;;;;;;;;;;;11.52;55.08;101098.22;4989521;28;97844;-81
2021/04/10 06:49:34;;;;;;;;;;;;;;;11.25;56.43;101097.34;5002017;28;96901;-82
2021/04/10 06:52:00;;;;;;;;;;;;;;;11.29;56.38;101098.97;5001556;28;98405;-81
2021/04/10 06:54:32;;;;;;;;;;;;;;;10.96;56.52;101100.06;5002222;28;97840;-81
2021/04/10 06:57:02;;;;;;;;;;;;;;;11.41;56.44;101101.22;4994492;28;99218;-81
2021/04/10 06:59:34;;;;;;;;;;;;;;;11.40;56.47;101112.72;5000014;28;96775;-79
2021/04/10 07:02:01;;;;;;;;;;;;;;;10.92;57.33;101109.84;4996261;28;97330;-79
2021/04/10 07:04:27;;;;;;;;;;;;;;;10.52;58.61;101104.91;4997490;28;97888;-79
2021/04/10 07:06:53;;;;;;;;;;;;;;;10.77;58.31;101105.03;4997588;28;97627;-80
2021/04/10 07:09:19;;;;;;;;;;;;;;;10.51;59.19;101107.59;4997143;28;96839;-81
2021/04/10 07:11:46;;;;;;;;;;;;;;;10.37;60.28;101111.50;4994881;28;96870;-82
2021/04/10 07:14:13;;;;;;;;;;;;;;;10.12;60.95;101120.13;5002080;28;98304;-80
2021/04/10 07:16:39;;;;;;;;;;;;;;;10.28;59.94;101121.47;5005844;28;100689;-81
2021/04/10 07:19:09;;;;;;;;;;;;;;;10.76;58.67;101127.94;4996288;28;97590;-82
2021/04/10 07:21:35;;;;;;;;;;;;;;;10.81;57.00;101132.25;5003426;28;96796;-81
2021/04/10 07:24:01;;;;;;;;;;;;;;;10.51;59.06;101129.59;5001399;28;98830;-81
2021/04/10 07:26:41;;;;;;;;;;;;;;;10.56;57.87;101130.34;4998791;28;98967;-80
2021/04/10 07:29:28;;;;;;;;;;;;;;;10.55;57.70;101131.25;4999508;28;97280;-81
2021/04/10 07:31:54;;;;;;;;;;;;;;;11.07;56.68;101122.59;4996901;28;97409;-81
2021/04/10 07:34:21;;;;;;;;;;;;;;;11.40;56.46;101130.38;4988866;28;98816;-79
2021/04/10 07:36:55;;;;;;;;;;;;;;;11.15;56.24;101131.16;4992123;28;98920;-82
2021/04/10 07:39:21;;;;;;;;;;;;;;;11.18;56.10;101131.06;4995886;28;98965;-81
2021/04/10 07:41:57;;;;;;;;;;;;;;;11.21;56.14;101137.19;5002911;28;96934;-82
2021/04/10 07:44:36;;;;;;;;;;;;;;;11.20;55.78;101136.31;4997275;28;100362;-81
2021/04/10 07:47:03;;;;;;;;;;;;;;;11.49;54.98;101146.78;5000710;28;100703;-81
2021/04/10 07:49:32;;;;;;;;;;;;;;;11.04;55.83;101142.97;5004813;28;97013;-80
2021/04/10 07:52:00;;;;;;;;;;;;;;;11.11;56.63;101141.88;5003481;28;96891;-80
2021/04/10 07:54:27;;;;;;;;;;;;;;;11.11;56.09;101137.44;5006808;28;99479;-79
2021/04/10 07:56:54;;;;;;;;;;;;;;;11.09;56.87;101147.19;5001494;28;99501;-81
2021/04/10 07:59:20;;;;;;;;;;;;;;;11.22;56.51;101145.06;5000314;28;96982;-80
2021/04/10 08:01:48;;;;;;;;;;;;;;;10.51;57.43;101156.00;5008635;28;97226;-80
2021/04/10 08:04:14;;;;;;;;;;;;;;;10.64;58.60;101156.53;5013869;28;100002;-80
2021/04/10 08:06:52;;;;;;;;;;;;;;;11.38;56.21;101151.59;5001644;28;97640;-81
2021/04/10 08:09:26;;;;;;;;;;;;;;;11.92;54.26;101153.34;4995855;28;96874;-80
2021/04/10 08:11:52;;;;;;;;;;;;;;;12.10;53.41;101149.19;5001309;28;96801;-80
2021/04/10 08:14:18;;;;;;;;;;;;;;;12.46;52.32;101153.16;5001306;28;99253;-81
2021/04/10 08:16:45;;;;;;;;;;;;;;;12.46;51.75;101155.81;5001738;28;99130;-81
2021/04/10 08:19:12;;;;;;;;;;;;;;;12.42;52.09;101166.56;4997771;28;99671;-81
2021/04/10 08:21:43;;;;;;;;;;;;;;;12.72;51.31;101158.38;4995682;28;97211;-81
2021/04/10 08:24:26;;;;;;;;;;;;;;;12.07;53.07;101171.34;4997835;28;96910;-81
2021/04/10 08:26:53;;;;;;;;;;;;;;;11.73;54.70;101168.09;4997375;28;97892;-80
2021/04/10 08:29:19;;;;;;;;;;;;;;;11.97;54.10;101169.94;4985764;28;98560;-80
2021/04/10 08:31:47;;;;;;;;;;;;;;;12.83;51.68;101173.00;4999707;28;98814;-80
2021/04/10 08:34:14;;;;;;;;;;;;;;;12.89;51.32;101176.28;4979232;28;98247;-80
2021/04/10 08:36:42;;;;;;;;;;;;;;;12.67;51.96;101183.28;4996626;28;100945;-80
2021/04/10 08:39:09;;;;;;;;;;;;;;;11.78;53.62;101187.38;4993396;28;97094;-79
2021/04/10 08:41:35;;;;;;;;;;;;;;;12.00;53.47;101183.09;4990167;28;98532;-80
2021/04/10 08:44:03;;;;;;;;;;;;;;;12.75;51.56;101194.50;4994266;28;99357;-81
2021/04/10 08:46:29;;;;;;;;;;;;;;;12.91;50.30;101195.66;4992118;28;100277;-81
2021/04/10 08:48:58;;;;;;;;;;;;;;;13.46;49.52;101194.38;4995830;28;96909;-79
2021/04/10 08:51:27;;;;;;;;;;;;;;;12.92;49.67;101192.09;4992453;28;97016;-80
2021/04/10 08:53:54;;;;;;;;;;;;;;;12.92;50.57;101191.22;4992386;28;101468;-80
2021/04/10 08:56:22;;;;;;;;;;;;;;;13.54;49.41;101199.38;4995563;28;102442;-80
2021/04/10 08:58:49;;;;;;;;;;;;;;;13.06;50.19;101205.66;4993864;28;97213;-82
2021/04/10 09:01:18;;;;;;;;;;;;;;;13.10;50.28;101201.97;4995405;28;97428;-81
2021/04/10 09:03:50;;;;;;;;;;;;;;;12.33;51.76;101202.22;4999591;28;98161;-81
2021/04/10 09:06:17;;;;;;;;;;;;;;;13.06;50.54;101210.13;4993726;28;98405;-81
2021/04/10 09:08:44;;;;;;;;;;;;;;;13.83;48.50;101201.72;4998034;28;96858;-82
2021/04/10 09:11:18;;;;;;;;;;;;;;;13.60;48.43;101217.72;4996245;28;96830;-81
2021/04/10 09:13:51;;;;;;;;;;;;;;;13.11;49.49;101214.31;5000375;28;97683;-81
2021/04/10 09:16:20;;;;;;;;;;;;;;;13.50;49.08;101221.69;4999075;28;98558;-81
2021/04/10 09:18:53;;;;;;;;;;;;;;;13.68;47.27;101212.97;4998123;28;99034;-80
2021/04/10 09:21:23;;;;;;;;;;;;;;;12.85;49.27;101217.09;5001837;28;96799;-82
2021/04/10 09:23:52;;;;;;;;;;;;;;;14.23;46.82;101205.34;5005102;28;98524;-80
2021/04/10 09:26:19;;;;;;;;;;;;;;;14.00;46.58;101208.97;5013781;28;100971;-80
2021/04/10 09:29:18;;;;;;;;;;;;;;;14.13;45.98;101211.97;5015908;28;96562;-79
2021/04/10 09:31:46;;;;;;;;;;;;;;;14.03;45.75;101203.53;4985155;28;97265;-81
2021/04/10 09:34:31;;;;;;;;;;;;;;;14.19;45.67;101211.69;4977470;28;100029;-81
2021/04/10 09:36:57;;;;;;;;;;;;;;;14.65;44.25;101211.44;4997000;28;98107;-80
2021/04/10 09:39:41;;;;;;;;;;;;;;;14.52;45.14;101218.25;5009012;28;96732;-81
2021/04/10 09:42:08;;;;;;;;;;;;;;;14.15;45.65;101220.75;5003483;28;96759;-83
2021/04/10 09:45:03;;;;;;;;;;;;;;;14.10;45.42;101223.59;5009517;28;99002;-81
2021/04/10 09:47:50;;;;;;;;;;;;;;;13.51;46.81;101228.72;5000716;28;97424;-82
2021/04/10 09:50:16;;;;;;;;;;;;;;;13.37;46.83;101236.38;5004818;28;96733;-82
2021/04/10 09:52:43;;;;;;;;;;;;;;;14.61;43.83;101228.47;5031057;28;96664;-81
2021/04/10 09:55:10;;;;;;;;;;;;;;;14.62;43.04;101230.22;5017435;28;101652;-81
2021/04/10 09:57:38;;;;;;;;;;;;;;;15.10;42.42;101228.91;5020486;28;98236;-79
2021/04/10 10:00:04;;;;;;;;;;;;;;;15.41;41.92;101231.00;5009258;28;97078;-81
2021/04/10 10:02:31;;;;;;;;;;;;;;;16.19;40.62;101234.22;5016884;28;96862;-82
2021/04/10 10:04:56;;;;;;;;;;;;;;;15.92;41.17;101238.28;5015496;28;97658;-81
2021/04/10 10:07:23;;;;;;;;;;;;;;;14.69;41.80;101239.66;5014430;28;97259;-80
2021/04/10 10:10:05;;;;;;;;;;;;;;;15.10;40.58;101227.09;5011492;28;96765;-82
2021/04/10 10:12:31;;;;;;;;;;;;;;;15.13;40.71;101231.44;5006473;28;97526;-80
2021/04/10 10:14:58;;;;;;;;;;;;;;;15.79;39.37;101237.16;5013582;28;97768;-80
2021/04/10 10:17:27;;;;;;;;;;;;;;;14.76;41.99;101229.59;5006996;28;101876;-81
2021/04/10 10:20:07;;;;;;;;;;;;;;;15.62;40.97;101235.28;5006379;28;96857;-81
2021/04/10 10:22:33;;;;;;;;;;;;;;;16.64;38.47;101231.00;4995127;28;96891;-82
2021/04/10 10:25:11;;;;;;;;;;;;;;;15.23;40.64;101238.03;5001838;28;100655;-83
2021/04/10 10:27:38;;;;;;;;;;;;;;;15.61;39.88;101241.59;5003492;28;101351;-82
2021/04/10 10:30:13;;;;;;;;;;;;;;;16.34;37.91;101248.59;5008119;28;96808;-83
2021/04/10 10:32:39;;;;;;;;;;;;;;;16.07;38.51;101256.19;5014656;28;96924;-80
2021/04/10 10:35:06;;;;;;;;;;;;;;;15.72;38.96;101251.72;5011038;28;98890;-82
2021/04/10 10:37:32;;;;;;;;;;;;;;;15.48;39.32;101256.41;5013183;28;97707;-83
2021/04/10 10:39:59;;;;;;;;;;;;;;;15.76;39.03;101250.63;5006468;28;96868;-80
2021/04/10 10:42:25;;;;;;;;;;;;;;;16.25;38.56;101254.38;5004886;28;96942;-83
2021/04/10 10:44:52;;;;;;;;;;;;;;;15.20;40.50;101270.13;5006006;28;98923;-82
2021/04/10 10:47:23;;;;;;;;;;;;;;;14.74;41.19;101274.03;5006328;28;101004;-82
2021/04/10 10:49:49;;;;;;;;;;;;;;;15.10;40.67;101267.03;5007545;28;96660;-83
2021/04/10 10:52:15;;;;;;;;;;;;;;;14.77;41.16;101265.06;5003610;28;96779;-82
2021/04/10 10:54:43;;;;;;;;;;;;;;;15.07;40.71;101263.66;5009684;28;98954;-81
2021/04/10 10:57:09;;;;;;;;;;;;;;;15.72;39.48;101263.22;5006635;28;101899;-82
2021/04/10 10:59:36;;;;;;;;;;;;;;;16.18;38.95;101260.97;5003463;28;96821;-82
2021/04/10 11:02:03;;;;;;;;;;;;;;;16.04;38.84;101266.97;5001061;28;97364;-82
2021/04/10 11:04:37;;;;;;;;;;;;;;;15.79;38.99;101266.47;4996968;28;97855;-81
2021/04/10 11:07:05;;;;;;;;;;;;;;;16.06;38.24;101265.09;4993659;28;98869;-81
2021/04/10 11:09:32;;;;;;;;;;;;;;;16.05;38.80;101271.38;4997094;28;97211;-81
2021/04/10 11:12:00;;;;;;;;;;;;;;;15.87;38.99;101267.81;4998489;28;96900;-82
2021/04/10 11:14:27;;;;;;;;;;;;;;;15.94;38.92;101271.91;4995420;28;100609;-80
2021/04/10 11:16:53;;;;;;;;;;;;;;;15.70;39.15;101269.56;4996973;28;99192;-79
2021/04/10 11:19:27;;;;;;;;;;;;;;;15.85;38.99;101271.50;5005188;28;97274;-82
2021/04/10 11:21:54;;;;;;;;;;;;;;;15.83;38.92;101278.69;5001025;28;96908;-82
2021/04/10 11:24:20;;;;;;;;;;;;;;;15.54;39.15;101283.66;4996166;28;98066;-81
2021/04/10 11:26:48;;;;;;;;;;;;;;;15.38;38.94;101284.38;4998725;28;97625;-82
2021/04/10 11:29:25;;;;;;;;;;;;;;;15.13;39.42;101288.19;5002547;28;96787;-81
2021/04/10 11:32:07;;;;;;;;;;;;;;;15.08;39.20;101300.00;4999032;28;96996;-83
2021/04/10 11:34:35;;;;;;;;;;;;;;;14.43;40.75;101286.94;4993646;28;100709;-81
2021/04/10 11:37:03;;;;;;;;;;;;;;;14.61;40.64;101294.09;4997759;28;98891;-79
2021/04/10 11:39:29;;;;;;;;;;;;;;;14.85;40.47;101300.13;4995986;28;96859;-81
2021/04/10 11:41:55;;;;;;;;;;;;;;;15.03;39.86;101297.50;5002831;28;97447;-83
2021/04/10 11:44:24;;;;;;;;;;;;;;;15.12;40.09;101309.56;5001760;28;100593;-80
2021/04/10 11:46:58;;;;;;;;;;;;;;;15.23;39.49;101299.25;4998850;28;100397;-80
2021/04/10 11:49:24;;;;;;;;;;;;;;;14.59;40.85;101299.47;4997435;28;96876;-81
2021/04/10 11:51:50;;;;;;;;;;;;;;;14.13;41.74;101303.19;5001623;28;97044;-82
2021/04/10 11:54:30;;;;;;;;;;;;;;;14.86;41.00;101299.22;4993968;28;99333;-81
2021/04/10 11:56:56;;;;;;;;;;;;;;;15.01;40.67;101295.88;5001866;28;97285;-80
2021/04/10 11:59:37;;;;;;;;;;;;;;;14.72;41.20;101300.69;4997172;28;97750;-80
2021/04/10 12:02:03;;;;;;;;;;;;;;;15.10;40.06;101296.31;4999520;28;96856;-81
2021/04/10 12:04:34;;;;;;;;;;;;;;;15.73;39.00;101296.94;5000784;28;101099;-81
2021/04/10 12:07:03;;;;;;;;;;;;;;;15.42;39.92;101293.97;4996017;28;101115;-83
2021/04/10 12:09:35;;;;;;;;;;;;;;;15.40;39.86;101291.38;4999969;28;96805;-80
2021/04/10 12:12:01;;;;;;;;;;;;;;;14.52;41.65;101306.00;5011191;28;97128;-80
2021/04/10 12:14:27;;;;;;;;;;;;;;;15.00;40.21;101305.66;5013315;28;99198;-80
2021/04/10 12:16:53;;;;;;;;;;;;;;;15.26;39.59;101309.78;5011380;28;99993;-80
2021/04/10 12:19:19;;;;;;;;;;;;;;;15.21;39.43;101311.81;5003144;28;96662;-80
2021/04/10 12:21:45;;;;;;;;;;;;;;;15.27;39.37;101314.19;5005714;28;96836;-81
2021/04/10 12:24:11;;;;;;;;;;;;;;;15.36;39.37;101319.06;4999485;28;99736;-79
2021/04/10 12:26:38;;;;;;;;;;;;;;;15.45;39.11;101310.66;5000942;28;101738;-79
2021/04/10 12:29:04;;;;;;;;;;;;;;;14.60;40.99;101311.84;5001460;28;96809;-80
2021/04/10 12:31:30;;;;;;;;;;;;;;;14.98;40.73;101309.31;5000615;28;97267;-78
2021/04/10 12:33:58;;;;;;;;;;;;;;;14.98;41.29;101310.16;4998131;28;99733;-81
2021/04/10 12:36:24;;;;;;;;;;;;;;;14.73;40.65;101304.22;4998663;28;99265;-79
2021/04/10 12:38:50;;;;;;;;;;;;;;;14.98;40.22;101314.63;4989695;28;97014;-79